createdAt,value
2024-01-20T00:02:04.893Z,100306.75
2024-01-20T00:04:34.389Z,100311.70
2024-01-20T00:07:05.321Z,100316.78
2024-01-20T00:09:39.031Z,100317.46
2024-01-20T00:12:21.777Z,100319.98
2024-01-20T00:14:51.672Z,100321.83
2024-01-20T00:17:25.808Z,100324.91
2024-01-20T00:19:59.481Z,100322.91
2024-01-20T00:22:29.198Z,100323.96
2024-01-20T00:25:02.424Z,100326.13
2024-01-20T00:27:32.255Z,100322.90
2024-01-20T00:30:04.476Z,100324.98
2024-01-20T00:32:34.767Z,100325.06
2024-01-20T00:35:08.210Z,100325.14
2024-01-20T00:37:39.731Z,100324.89
2024-01-20T00:40:11.726Z,100326.99
2024-01-20T00:42:41.419Z,100329.70
2024-01-20T00:45:13.048Z,100332.05
2024-01-20T00:47:42.556Z,100332.92
2024-01-20T00:50:13.267Z,100331.60
2024-01-20T00:52:42.733Z,100323.59
2024-01-20T00:55:13.658Z,100320.16
2024-01-20T00:57:43.261Z,100319.17
2024-01-20T01:00:15.021Z,100319.73
2024-01-20T01:02:44.416Z,100318.04
2024-01-20T01:05:15.089Z,100320.94
2024-01-20T01:07:44.388Z,100322.16
2024-01-20T01:10:15.093Z,100325.73
2024-01-20T01:12:44.380Z,100326.79
2024-01-20T01:15:15.436Z,100326.14
2024-01-20T01:17:44.755Z,100328.91
2024-01-20T01:20:15.742Z,100335.86
2024-01-20T01:22:45.211Z,100342.96
2024-01-20T01:25:15.901Z,100349.38
2024-01-20T01:27:45.202Z,100351.23
2024-01-20T01:30:16.077Z,100352.08
2024-01-20T01:32:45.456Z,100348.13
2024-01-20T01:35:16.180Z,100348.94
2024-01-20T01:37:46.092Z,100348.70
2024-01-20T01:40:16.617Z,100345.41
2024-01-20T01:42:46.118Z,100349.85
2024-01-20T01:45:16.949Z,100350.20
2024-01-20T01:47:46.512Z,100347.84
2024-01-20T01:50:17.014Z,100349.77
2024-01-20T01:52:49.050Z,100351.69
2024-01-20T01:55:19.791Z,100348.88
2024-01-20T01:57:49.597Z,100345.48
2024-01-20T02:00:20.251Z,100346.14
2024-01-20T02:02:50.035Z,100347.46
2024-01-20T02:05:20.668Z,100345.42
2024-01-20T02:07:50.684Z,100347.01
2024-01-20T02:10:22.574Z,100349.61
2024-01-20T02:12:51.938Z,100353.60
2024-01-20T02:15:22.796Z,100353.33
2024-01-20T02:17:55.456Z,100353.35
2024-01-20T02:20:26.184Z,100353.56
2024-01-20T02:22:55.691Z,100352.11
2024-01-20T02:25:26.417Z,100351.33
2024-01-20T02:27:55.790Z,100350.04
2024-01-20T02:30:26.822Z,100349.80
2024-01-20T02:32:56.462Z,100349.91
2024-01-20T02:35:27.003Z,100350.88
2024-01-20T02:37:56.613Z,100350.64
2024-01-20T02:40:28.258Z,100350.57
2024-01-20T02:42:57.659Z,100354.90
2024-01-20T02:45:28.451Z,100355.60
2024-01-20T02:47:59.447Z,100359.86
2024-01-20T02:50:30.373Z,100353.95
2024-01-20T02:53:00.196Z,100352.27
2024-01-20T02:55:30.812Z,100353.09
2024-01-20T02:58:00.521Z,100349.69
2024-01-20T03:00:31.122Z,100352.27
2024-01-20T03:03:00.568Z,100349.73
2024-01-20T03:05:31.132Z,100349.38
2024-01-20T03:08:00.606Z,100352.09
2024-01-20T03:10:31.321Z,100353.59
2024-01-20T03:13:00.733Z,100360.25
2024-01-20T03:15:31.410Z,100360.60
2024-01-20T03:18:01.026Z,100359.43
2024-01-20T03:20:31.714Z,100363.49
2024-01-20T03:23:02.615Z,100369.26
2024-01-20T03:25:33.387Z,100369.41
2024-01-20T03:28:02.807Z,100370.63
2024-01-20T03:30:33.557Z,100374.05
2024-01-20T03:33:03.214Z,100376.83
2024-01-20T03:35:33.958Z,100373.67
2024-01-20T03:38:03.255Z,100378.19
2024-01-20T03:40:34.292Z,100381.51
2024-01-20T03:43:03.894Z,100381.42
2024-01-20T03:45:34.764Z,100380.63
2024-01-20T03:48:04.827Z,100376.61
2024-01-20T03:50:36.134Z,100373.44
2024-01-20T03:53:07.150Z,100371.10
2024-01-20T03:55:37.910Z,100374.52
2024-01-20T03:58:07.276Z,100382.72
2024-01-20T04:00:37.909Z,100382.11
2024-01-20T04:03:07.476Z,100388.33
2024-01-20T04:05:41.149Z,100394.00
2024-01-20T04:08:10.712Z,100393.21
2024-01-20T04:10:41.936Z,100394.73
2024-01-20T04:13:11.962Z,100399.98
2024-01-20T04:15:42.739Z,100401.02
2024-01-20T04:18:12.536Z,100406.84
2024-01-20T04:20:44.376Z,100410.47
2024-01-20T04:23:13.905Z,100411.08
2024-01-20T04:25:44.519Z,100414.89
2024-01-20T04:28:13.998Z,100415.34
2024-01-20T04:30:44.831Z,100418.50
2024-01-20T04:33:14.454Z,100417.40
2024-01-20T04:35:45.203Z,100423.86
2024-01-20T04:38:14.610Z,100424.55
2024-01-20T04:40:45.337Z,100427.27
2024-01-20T04:43:14.635Z,100430.16
2024-01-20T04:45:45.925Z,100432.55
2024-01-20T04:48:15.510Z,100437.30
2024-01-20T04:50:46.315Z,100440.88
2024-01-20T04:53:15.623Z,100436.50
2024-01-20T04:55:46.263Z,100440.23
2024-01-20T04:58:15.654Z,100439.21
2024-01-20T05:00:46.656Z,100442.92
2024-01-20T05:03:16.267Z,100443.09
2024-01-20T05:05:47.069Z,100444.41
2024-01-20T05:08:17.054Z,100441.49
2024-01-20T05:10:47.579Z,100442.77
2024-01-20T05:13:16.977Z,100444.25
2024-01-20T05:15:47.713Z,100448.56
2024-01-20T05:18:17.466Z,100445.09
2024-01-20T05:20:48.159Z,100449.90
2024-01-20T05:23:17.454Z,100449.48
2024-01-20T05:25:48.492Z,100450.56
2024-01-20T05:28:17.803Z,100449.10
2024-01-20T05:30:48.512Z,100447.61
2024-01-20T05:33:18.085Z,100449.73
2024-01-20T05:35:48.877Z,100450.86
2024-01-20T05:38:18.266Z,100451.63
2024-01-20T05:40:48.906Z,100462.06
2024-01-20T05:43:18.207Z,100461.14
2024-01-20T05:45:48.828Z,100462.98
2024-01-20T05:48:18.468Z,100464.33
2024-01-20T05:50:49.602Z,100469.26
2024-01-20T05:53:19.666Z,100469.77
2024-01-20T05:55:51.218Z,100471.84
2024-01-20T05:58:20.457Z,100473.20
2024-01-20T06:00:51.363Z,100475.58
2024-01-20T06:03:20.940Z,100477.77
2024-01-20T06:05:51.921Z,100481.00
2024-01-20T06:08:21.251Z,100483.57
2024-01-20T06:10:52.896Z,100489.02
2024-01-20T06:13:22.408Z,100491.92
2024-01-20T06:15:53.338Z,100493.45
2024-01-20T06:18:22.903Z,100489.68
2024-01-20T06:20:53.700Z,100494.85
2024-01-20T06:23:23.089Z,100493.55
2024-01-20T06:25:55.002Z,100490.70
2024-01-20T06:28:25.990Z,100490.90
2024-01-20T06:30:57.653Z,100495.02
2024-01-20T06:33:27.166Z,100494.55
2024-01-20T06:35:57.900Z,100496.27
2024-01-20T06:38:29.841Z,100494.39
2024-01-20T06:41:00.456Z,100497.40
2024-01-20T06:43:29.875Z,100497.90
2024-01-20T06:46:01.654Z,100499.09
2024-01-20T06:48:34.299Z,100498.46
2024-01-20T06:51:05.586Z,100500.91
2024-01-20T06:53:35.046Z,100500.66
2024-01-20T06:56:06.188Z,100506.46
2024-01-20T06:58:36.104Z,100510.23
2024-01-20T07:01:07.318Z,100510.96
2024-01-20T07:03:36.756Z,100508.89
2024-01-20T07:06:09.104Z,100517.02
2024-01-20T07:08:38.624Z,100519.61
2024-01-20T07:11:12.440Z,100521.92
2024-01-20T07:13:41.830Z,100522.36
2024-01-20T07:16:13.290Z,100521.06
2024-01-20T07:18:43.860Z,100523.48
2024-01-20T07:21:15.188Z,100527.63
2024-01-20T07:23:44.665Z,100527.83
2024-01-20T07:26:15.297Z,100525.85
2024-01-20T07:28:45.110Z,100523.66
2024-01-20T07:31:15.531Z,100529.27
2024-01-20T07:33:45.210Z,100530.92
2024-01-20T07:36:16.024Z,100530.33
2024-01-20T07:38:45.481Z,100533.66
2024-01-20T07:41:16.109Z,100536.13
2024-01-20T07:43:45.522Z,100542.85
2024-01-20T07:46:16.123Z,100540.54
2024-01-20T07:48:45.886Z,100545.54
2024-01-20T07:51:16.606Z,100545.77
2024-01-20T07:53:46.244Z,100541.38
2024-01-20T07:56:17.847Z,100547.14
2024-01-20T07:58:47.199Z,100551.73
2024-01-20T08:01:18.967Z,100552.85
2024-01-20T08:03:48.529Z,100557.61
2024-01-20T08:06:19.443Z,100562.00
2024-01-20T08:08:49.578Z,100560.17
2024-01-20T08:11:22.359Z,100564.45
2024-01-20T08:13:52.571Z,100564.38
2024-01-20T08:16:23.311Z,100568.23
2024-01-20T08:18:53.254Z,100569.16
2024-01-20T08:21:24.532Z,100568.97
2024-01-20T08:23:54.223Z,100578.52
2024-01-20T08:26:25.227Z,100581.84
2024-01-20T08:28:54.610Z,100585.92
2024-01-20T08:31:25.609Z,100589.60
2024-01-20T08:33:55.889Z,100589.98
2024-01-20T08:36:26.750Z,100594.21
2024-01-20T08:38:56.165Z,100590.81
2024-01-20T08:41:27.062Z,100584.83
2024-01-20T08:43:56.757Z,100584.77
2024-01-20T08:46:27.384Z,100587.66
2024-01-20T08:48:56.817Z,100586.67
2024-01-20T08:51:27.549Z,100586.14
2024-01-20T08:53:57.288Z,100590.23
2024-01-20T08:56:28.174Z,100590.73
2024-01-20T08:58:57.586Z,100592.80
2024-01-20T09:01:28.239Z,100598.58
2024-01-20T09:03:58.264Z,100602.61
2024-01-20T09:06:29.186Z,100605.75
2024-01-20T09:08:58.705Z,100606.16
2024-01-20T09:11:29.400Z,100610.55
2024-01-20T09:13:59.003Z,100612.70
2024-01-20T09:16:29.849Z,100615.38
2024-01-20T09:18:59.888Z,100621.91
2024-01-20T09:21:30.622Z,100626.72
2024-01-20T09:24:02.144Z,100622.94
2024-01-20T09:26:33.374Z,100620.64
2024-01-20T09:29:02.785Z,100627.08
2024-01-20T09:31:33.784Z,100626.17
2024-01-20T09:34:03.596Z,100627.80
2024-01-20T09:36:34.698Z,100628.44
2024-01-20T09:39:04.667Z,100625.55
2024-01-20T09:41:35.347Z,100624.89
2024-01-20T09:44:05.421Z,100621.64
2024-01-20T09:46:36.262Z,100621.53
2024-01-20T09:49:05.778Z,100627.18
2024-01-20T09:51:39.214Z,100628.98
2024-01-20T09:54:08.686Z,100627.70
2024-01-20T09:56:39.301Z,100629.89
2024-01-20T09:59:08.899Z,100627.79
2024-01-20T10:01:39.887Z,100624.61
2024-01-20T10:04:10.269Z,100624.34
2024-01-20T10:06:41.037Z,100626.73
2024-01-20T10:09:10.519Z,100625.80
2024-01-20T10:11:41.127Z,100624.13
2024-01-20T10:14:10.425Z,100625.48
2024-01-20T10:16:41.241Z,100626.14
2024-01-20T10:19:10.666Z,100628.45
2024-01-20T10:21:44.509Z,100630.73
2024-01-20T10:24:14.089Z,100630.63
2024-01-20T10:26:45.317Z,100635.04
2024-01-20T10:29:14.626Z,100635.90
2024-01-20T10:31:45.254Z,100635.22
2024-01-20T10:34:14.666Z,100632.65
2024-01-20T10:36:46.083Z,100636.80
2024-01-20T10:39:18.247Z,100627.71
2024-01-20T10:41:50.018Z,100631.84
2024-01-20T10:44:19.345Z,100628.73
2024-01-20T10:46:52.311Z,100628.93
2024-01-20T10:49:22.119Z,100630.54
2024-01-20T10:51:52.987Z,100629.58
2024-01-20T10:54:22.613Z,100628.22
2024-01-20T10:56:53.224Z,100622.24
2024-01-20T10:59:24.068Z,100625.36
2024-01-20T11:01:54.692Z,100619.89
2024-01-20T11:04:24.256Z,100620.75
2024-01-20T11:06:55.695Z,100616.13
2024-01-20T11:09:25.714Z,100618.99
2024-01-20T11:12:03.908Z,100613.52
2024-01-20T11:14:34.824Z,100610.54
2024-01-20T11:17:13.951Z,100606.45
2024-01-20T11:19:44.753Z,100604.39
2024-01-20T11:22:49.641Z,100609.80
2024-01-20T11:25:21.067Z,100610.08
2024-01-20T11:27:51.268Z,100610.95
2024-01-20T11:30:32.107Z,100613.65
2024-01-20T11:33:03.334Z,100609.90
2024-01-20T11:35:32.914Z,100606.64
2024-01-20T11:38:03.746Z,100600.98
2024-01-20T11:40:33.048Z,100603.21
2024-01-20T11:43:07.797Z,100602.34
2024-01-20T11:45:40.541Z,100604.01
2024-01-20T11:48:14.026Z,100598.33
2024-01-20T11:50:46.129Z,100597.89
2024-01-20T11:53:15.921Z,100597.55
2024-01-20T11:56:01.583Z,100600.34
2024-01-20T11:58:32.348Z,100598.95
2024-01-20T12:01:03.166Z,100596.36
2024-01-20T12:03:34.013Z,100596.83
2024-01-20T12:06:08.865Z,100593.75
2024-01-20T12:08:46.723Z,100593.44
2024-01-20T12:11:21.207Z,100589.86
2024-01-20T12:13:50.997Z,100585.63
2024-01-20T12:16:21.611Z,100589.36
2024-01-20T12:18:51.147Z,100584.39
2024-01-20T12:21:22.206Z,100582.52
2024-01-20T12:23:53.724Z,100583.77
2024-01-20T12:26:24.819Z,100581.36
2024-01-20T12:28:54.550Z,100577.13
2024-01-20T12:31:27.447Z,100571.73
2024-01-20T12:33:56.890Z,100572.33
2024-01-20T12:36:28.646Z,100567.42
2024-01-20T12:38:58.196Z,100568.63
2024-01-20T12:41:28.844Z,100570.77
2024-01-20T12:43:58.139Z,100568.82
2024-01-20T12:46:28.768Z,100565.63
2024-01-20T12:48:58.134Z,100563.25
2024-01-20T12:51:28.894Z,100565.00
2024-01-20T12:53:58.545Z,100566.89
2024-01-20T12:56:29.246Z,100565.11
2024-01-20T12:58:58.664Z,100568.48
2024-01-20T13:01:30.150Z,100570.52
2024-01-20T13:03:59.697Z,100572.88
2024-01-20T13:06:31.974Z,100577.76
2024-01-20T13:09:01.688Z,100577.40
2024-01-20T13:11:32.318Z,100584.34
2024-01-20T13:14:02.159Z,100586.56
2024-01-20T13:16:32.860Z,100582.28
2024-01-20T13:19:02.821Z,100581.73
2024-01-20T13:21:33.552Z,100584.59
2024-01-20T13:24:03.285Z,100587.55
2024-01-20T13:26:34.142Z,100589.09
2024-01-20T13:29:03.546Z,100589.32
2024-01-20T13:31:35.960Z,100595.14
2024-01-20T13:34:05.385Z,100603.88
2024-01-20T13:36:36.408Z,100602.07
2024-01-20T13:39:06.564Z,100604.11
2024-01-20T13:41:37.429Z,100607.31
2024-01-20T13:44:06.818Z,100608.98
2024-01-20T13:46:37.442Z,100611.16
2024-01-20T13:49:08.393Z,100610.61
2024-01-20T13:51:40.083Z,100610.89
2024-01-20T13:54:09.731Z,100613.43
2024-01-20T13:56:40.602Z,100611.88
2024-01-20T13:59:10.704Z,100618.37
2024-01-20T14:01:43.346Z,100622.89
2024-01-20T14:04:13.042Z,100624.61
2024-01-20T14:06:43.822Z,100628.66
2024-01-20T14:09:13.368Z,100628.61
2024-01-20T14:11:43.959Z,100632.12
2024-01-20T14:14:13.227Z,100627.75
2024-01-20T14:16:57.101Z,100626.52
2024-01-20T14:19:30.955Z,100629.16
2024-01-20T14:22:00.934Z,100630.48
2024-01-20T14:24:31.602Z,100633.88
2024-01-20T14:27:01.064Z,100633.16
2024-01-20T14:29:31.707Z,100631.60
2024-01-20T14:32:04.251Z,100629.89
2024-01-20T14:34:35.116Z,100635.67
2024-01-20T14:37:08.013Z,100632.09
2024-01-20T14:39:39.465Z,100633.52
2024-01-20T14:42:09.372Z,100634.06
2024-01-20T14:44:39.979Z,100631.77
2024-01-20T14:47:10.541Z,100633.16
2024-01-20T14:49:41.285Z,100632.55
2024-01-20T14:52:10.750Z,100634.88
2024-01-20T14:54:41.431Z,100638.04
2024-01-20T14:57:10.841Z,100639.98
2024-01-20T14:59:41.414Z,100643.14
2024-01-20T15:02:11.123Z,100650.40
2024-01-20T15:04:41.713Z,100657.14
2024-01-20T15:07:11.231Z,100661.81
2024-01-20T15:09:42.538Z,100660.36
2024-01-20T15:12:12.245Z,100655.77
2024-01-20T15:14:45.407Z,100659.52
2024-01-20T15:17:14.913Z,100662.57
2024-01-20T15:19:45.590Z,100667.18
2024-01-20T15:22:15.038Z,100670.11
2024-01-20T15:24:46.200Z,100670.62
2024-01-20T15:27:15.609Z,100670.22
2024-01-20T15:29:46.331Z,100669.48
2024-01-20T15:32:15.623Z,100671.82
2024-01-20T15:34:46.438Z,100671.60
2024-01-20T15:37:15.861Z,100674.14
2024-01-20T15:39:46.661Z,100675.66
2024-01-20T15:42:16.829Z,100681.42
2024-01-20T15:44:47.962Z,100682.56
2024-01-20T15:47:17.251Z,100685.29
2024-01-20T15:49:48.537Z,100690.22
2024-01-20T15:52:18.105Z,100692.40
2024-01-20T15:54:48.884Z,100690.31
2024-01-20T15:57:18.479Z,100693.83
2024-01-20T15:59:49.177Z,100692.57
2024-01-20T16:02:18.884Z,100697.79
2024-01-20T16:04:49.783Z,100703.30
2024-01-20T16:07:19.442Z,100709.99
2024-01-20T16:09:50.308Z,100712.92
2024-01-20T16:12:19.677Z,100718.23
2024-01-20T16:14:50.826Z,100723.05
2024-01-20T16:17:20.217Z,100727.84
2024-01-20T16:19:51.062Z,100733.12
2024-01-20T16:22:20.350Z,100731.60
2024-01-20T16:24:51.530Z,100736.55
2024-01-20T16:27:21.464Z,100737.27
2024-01-20T16:29:52.150Z,100742.06
2024-01-20T16:32:21.509Z,100746.69
2024-01-20T16:34:52.253Z,100753.22
2024-01-20T16:37:21.772Z,100753.30
2024-01-20T16:39:53.256Z,100752.02
2024-01-20T16:42:24.903Z,100750.84
2024-01-20T16:44:57.248Z,100753.23
2024-01-20T16:47:27.047Z,100760.91
2024-01-20T16:49:57.924Z,100761.61
2024-01-20T16:52:27.195Z,100764.02
2024-01-20T16:54:57.733Z,100763.18
2024-01-20T16:57:44.596Z,100769.45
2024-01-20T17:00:14.793Z,100778.60
2024-01-20T17:02:45.400Z,100781.80
2024-01-20T17:05:15.632Z,100784.35
2024-01-20T17:07:46.756Z,100780.64
2024-01-20T17:10:16.370Z,100783.54
2024-01-20T17:12:47.009Z,100789.66
2024-01-20T17:15:16.826Z,100791.02
2024-01-20T17:17:47.659Z,100794.41
2024-01-20T17:20:17.455Z,100795.44
2024-01-20T17:22:48.089Z,100802.09
2024-01-20T17:25:17.485Z,100807.58
2024-01-20T17:27:51.394Z,100810.14
2024-01-20T17:30:20.768Z,100813.48
2024-01-20T17:32:51.675Z,100816.70
2024-01-20T17:35:21.242Z,100820.05
2024-01-20T17:37:51.777Z,100824.61
2024-01-20T17:40:21.888Z,100826.98
2024-01-20T17:42:52.523Z,100827.50
2024-01-20T17:45:22.046Z,100828.89
2024-01-20T17:47:53.619Z,100832.15
2024-01-20T17:50:25.460Z,100833.88
2024-01-20T17:52:56.235Z,100842.89
2024-01-20T17:55:27.612Z,100845.77
2024-01-20T17:58:00.232Z,100844.77
2024-01-20T18:00:30.124Z,100849.20
2024-01-20T18:03:00.846Z,100850.53
2024-01-20T18:05:30.510Z,100853.93
2024-01-20T18:08:01.396Z,100849.84
2024-01-20T18:10:30.899Z,100848.98
2024-01-20T18:13:06.835Z,100848.83
2024-01-20T18:15:37.375Z,100857.49
2024-01-20T18:18:07.554Z,100855.98
2024-01-20T18:20:38.326Z,100867.92
2024-01-20T18:23:07.766Z,100868.28
2024-01-20T18:25:38.461Z,100865.91
2024-01-20T18:28:07.880Z,100868.82
2024-01-20T18:30:39.356Z,100870.69
2024-01-20T18:33:08.959Z,100870.83
2024-01-20T18:35:39.860Z,100873.02
2024-01-20T18:38:09.265Z,100876.23
2024-01-20T18:40:40.502Z,100876.92
2024-01-20T18:43:09.906Z,100880.83
2024-01-20T18:45:40.596Z,100883.02
2024-01-20T18:48:10.185Z,100884.09
2024-01-20T18:50:41.178Z,100883.25
2024-01-20T18:53:11.829Z,100885.81
2024-01-20T18:55:42.656Z,100886.14
2024-01-20T18:58:15.037Z,100888.67
2024-01-20T19:00:45.914Z,100893.74
2024-01-20T19:03:15.428Z,100895.95
2024-01-20T19:05:46.191Z,100901.59
2024-01-20T19:08:15.494Z,100903.98
2024-01-20T19:10:46.138Z,100903.50
2024-01-20T19:13:16.032Z,100906.93
2024-01-20T19:15:49.134Z,100902.22
2024-01-20T19:18:19.133Z,100902.42
2024-01-20T19:20:50.101Z,100903.95
2024-01-20T19:23:19.485Z,100910.40
2024-01-20T19:25:50.115Z,100908.17
2024-01-20T19:28:19.834Z,100908.85
2024-01-20T19:30:50.528Z,100909.72
2024-01-20T19:33:20.392Z,100912.63
2024-01-20T19:35:51.719Z,100911.69
2024-01-20T19:38:21.026Z,100916.52
2024-01-20T19:40:51.658Z,100917.45
2024-01-20T19:43:21.269Z,100918.03
2024-01-20T19:45:52.097Z,100919.45
2024-01-20T19:48:21.564Z,100920.69
2024-01-20T19:50:53.162Z,100923.09
2024-01-20T19:53:22.456Z,100925.63
2024-01-20T19:55:53.720Z,100930.70
2024-01-20T19:58:23.209Z,100933.58
2024-01-20T20:00:53.981Z,100938.98
2024-01-20T20:03:23.850Z,100941.52
2024-01-20T20:05:54.524Z,100944.73
2024-01-20T20:08:24.392Z,100947.21
2024-01-20T20:10:55.430Z,100946.52
2024-01-20T20:13:27.859Z,100952.08
2024-01-20T20:16:00.167Z,100952.71
2024-01-20T20:18:31.437Z,100955.89
2024-01-20T20:21:02.203Z,100960.07
2024-01-20T20:23:31.767Z,100955.91
2024-01-20T20:26:03.194Z,100950.89
2024-01-20T20:28:32.717Z,100945.83
2024-01-20T20:31:09.861Z,100946.69
2024-01-20T20:33:42.108Z,100945.69
2024-01-20T20:36:11.516Z,100945.38
2024-01-20T20:38:42.101Z,100943.72
2024-01-20T20:41:11.515Z,100951.95
2024-01-20T20:43:42.248Z,100959.15
2024-01-20T20:46:11.644Z,100963.64
2024-01-20T20:48:42.302Z,100963.70
2024-01-20T20:51:12.223Z,100964.92
2024-01-20T20:53:43.024Z,100966.65
2024-01-20T20:56:13.752Z,100967.03
2024-01-20T20:58:44.376Z,100965.57
2024-01-20T21:01:14.109Z,100962.73
2024-01-20T21:03:46.366Z,100965.88
2024-01-20T21:06:16.377Z,100964.62
2024-01-20T21:08:46.919Z,100963.89
2024-01-20T21:11:16.321Z,100960.27
2024-01-20T21:13:47.241Z,100961.23
2024-01-20T21:16:17.161Z,100961.17
2024-01-20T21:18:47.674Z,100963.48
2024-01-20T21:21:17.259Z,100962.58
2024-01-20T21:23:49.605Z,100961.50
2024-01-20T21:26:24.598Z,100960.29
2024-01-20T21:28:55.341Z,100961.47
2024-01-20T21:31:24.726Z,100964.84
2024-01-20T21:33:56.199Z,100973.33
2024-01-20T21:36:26.249Z,100978.39
2024-01-20T21:38:57.862Z,100984.45
2024-01-20T21:41:27.907Z,100985.23
2024-01-20T21:44:01.880Z,100982.13
2024-01-20T21:46:31.482Z,100980.39
2024-01-20T21:49:02.212Z,100981.21
2024-01-20T21:51:31.672Z,100983.41
2024-01-20T21:54:02.354Z,100990.20
2024-01-20T21:56:31.967Z,100994.11
2024-01-20T21:59:02.493Z,100996.77
2024-01-20T22:01:38.304Z,101003.16
2024-01-20T22:04:10.148Z,101003.13
2024-01-20T22:06:39.988Z,101005.46
2024-01-20T22:09:10.765Z,101009.04
2024-01-20T22:11:40.353Z,101009.52
2024-01-20T22:14:10.860Z,101011.24
2024-01-20T22:16:40.285Z,101008.69
2024-01-20T22:19:11.014Z,101010.90
2024-01-20T22:21:42.470Z,101011.58
2024-01-20T22:24:13.398Z,101009.15
2024-01-20T22:26:42.820Z,101016.23
2024-01-20T22:29:19.533Z,101018.05
2024-01-20T22:32:00.354Z,101022.64
2024-01-20T22:34:32.798Z,101021.61
2024-01-20T22:37:04.374Z,101030.64
2024-01-20T22:39:33.721Z,101030.61
2024-01-20T22:42:04.414Z,101029.55
2024-01-20T22:44:33.808Z,101035.97
2024-01-20T22:47:04.745Z,101036.56
2024-01-20T22:49:34.812Z,101035.65
2024-01-20T22:52:06.336Z,101035.12
2024-01-20T22:54:35.821Z,101032.16
2024-01-20T22:57:07.821Z,101029.25
2024-01-20T22:59:37.246Z,101027.20
2024-01-20T23:02:07.916Z,101029.40
2024-01-20T23:04:37.359Z,101028.34
2024-01-20T23:07:08.050Z,101029.63
2024-01-20T23:09:37.383Z,101030.32
2024-01-20T23:12:08.205Z,101029.96
2024-01-20T23:14:38.914Z,101032.01
2024-01-20T23:17:09.563Z,101031.01
2024-01-20T23:19:39.178Z,101029.02
2024-01-20T23:22:09.807Z,101029.39
2024-01-20T23:24:39.189Z,101026.98
2024-01-20T23:27:10.495Z,101028.13
2024-01-20T23:29:40.101Z,101033.58
2024-01-20T23:32:10.875Z,101039.22
2024-01-20T23:34:41.212Z,101042.14
2024-01-20T23:37:13.884Z,101045.77
2024-01-20T23:39:43.342Z,101047.33
2024-01-20T23:42:14.159Z,101048.52
2024-01-20T23:44:43.748Z,101050.21
2024-01-20T23:47:14.422Z,101049.85
2024-01-20T23:49:43.734Z,101054.11
2024-01-20T23:52:14.597Z,101056.64
2024-01-20T23:54:44.178Z,101052.52
2024-01-20T23:57:15.287Z,101046.90
2024-01-20T23:59:48.143Z,101050.46
